createdAt,value
2018-08-14T00:02:09.056Z,55.01
2018-08-14T00:04:40.978Z,54.89
2018-08-14T00:07:13.435Z,55.53
2018-08-14T00:09:45.225Z,55.53
2018-08-14T00:12:17.214Z,56.61
2018-08-14T00:14:49.175Z,54.25
2018-08-14T00:17:21.195Z,55.29
2018-08-14T00:19:52.836Z,54.79
2018-08-14T00:22:24.853Z,55.96
2018-08-14T00:24:56.612Z,55.92
2018-08-14T00:27:28.913Z,56.22
2018-08-14T00:30:01.045Z,56.64
2018-08-14T00:32:33.064Z,57.22
2018-08-14T00:35:05.523Z,56.93
2018-08-14T00:37:37.532Z,56.07
2018-08-14T00:40:12.169Z,54.45
2018-08-14T00:42:44.255Z,57.38
2018-08-14T00:45:18.455Z,55.82
2018-08-14T00:47:51.472Z,54.41
2018-08-14T00:50:23.756Z,55.05
2018-08-14T00:52:55.687Z,55.53
2018-08-14T00:55:27.641Z,54.52
2018-08-14T00:57:59.591Z,54.26
2018-08-14T01:00:34.987Z,55.77
2018-08-14T01:03:07.905Z,55.99
2018-08-14T01:05:40.144Z,54.93
2018-08-14T01:08:12.512Z,54.31
2018-08-14T01:10:45.353Z,56.20
2018-08-14T01:13:17.484Z,56.64
2018-08-14T01:15:49.470Z,56.41
2018-08-14T01:18:21.784Z,56.36
2018-08-14T01:20:54.428Z,56.28
2018-08-14T01:23:26.635Z,54.97
2018-08-14T01:25:58.786Z,55.82
2018-08-14T01:28:30.946Z,55.84
2018-08-14T01:31:02.737Z,54.97
2018-08-14T01:33:34.853Z,57.32
2018-08-14T01:36:06.707Z,57.32
2018-08-14T01:38:38.330Z,57.26
2018-08-14T01:41:10.459Z,55.51
2018-08-14T01:43:42.337Z,56.10
2018-08-14T01:46:14.296Z,54.83
2018-08-14T01:48:47.382Z,54.81
2018-08-14T01:51:19.980Z,55.05
2018-08-14T01:53:52.068Z,56.52
2018-08-14T01:56:24.074Z,55.82
2018-08-14T01:58:56.052Z,55.76
2018-08-14T02:01:27.820Z,57.97
2018-08-14T02:04:00.112Z,57.44
2018-08-14T02:06:32.195Z,56.08
2018-08-14T02:09:04.281Z,55.57
2018-08-14T02:11:36.394Z,55.05
2018-08-14T02:14:08.800Z,54.88
2018-08-14T02:16:40.414Z,54.36
2018-08-14T02:19:12.295Z,53.74
2018-08-14T02:21:44.691Z,55.40
2018-08-14T02:24:17.340Z,55.98
2018-08-14T02:26:48.877Z,56.83
2018-08-14T02:29:20.849Z,56.44
2018-08-14T02:31:53.054Z,56.48
2018-08-14T02:34:25.152Z,55.91
2018-08-14T02:36:57.153Z,55.56
2018-08-14T02:39:29.225Z,54.88
2018-08-14T02:42:01.096Z,56.55
2018-08-14T02:44:33.037Z,55.03
2018-08-14T02:47:04.844Z,56.70
2018-08-14T02:49:36.562Z,56.68
2018-08-14T02:52:09.569Z,56.82
2018-08-14T02:54:41.296Z,58.33
2018-08-14T02:57:13.131Z,56.67
2018-08-14T02:59:44.979Z,56.56
2018-08-14T03:02:16.893Z,56.42
2018-08-14T03:04:49.122Z,56.60
2018-08-14T03:07:21.263Z,48.66
2018-08-14T03:09:53.445Z,50.70
2018-08-14T03:12:25.185Z,51.62
2018-08-14T03:15:01.493Z,52.73
2018-08-14T03:17:33.489Z,54.83
2018-08-14T03:20:06.149Z,58.56
2018-08-14T03:22:38.572Z,57.67
2018-08-14T03:25:11.171Z,56.82
2018-08-14T03:27:43.070Z,56.60
2018-08-14T03:30:15.631Z,57.42
2018-08-14T03:32:47.616Z,56.74
2018-08-14T03:35:19.392Z,55.30
2018-08-14T03:37:51.406Z,55.26
2018-08-14T03:40:23.337Z,56.40
2018-08-14T03:42:55.174Z,55.70
2018-08-14T03:45:27.224Z,56.42
2018-08-14T03:48:00.055Z,55.42
2018-08-14T03:50:32.071Z,56.75
2018-08-14T03:53:03.755Z,57.74
2018-08-14T03:55:35.471Z,56.37
2018-08-14T03:58:07.743Z,57.23
2018-08-14T04:00:39.800Z,58.34
2018-08-14T04:03:11.639Z,57.97
2018-08-14T04:05:43.648Z,57.10
2018-08-14T04:08:15.496Z,58.77
2018-08-14T04:10:47.175Z,58.33
2018-08-14T04:13:19.008Z,58.23
2018-08-14T04:15:51.048Z,59.21
2018-08-14T04:18:23.401Z,59.76
2018-08-14T04:20:55.128Z,60.04
2018-08-14T04:23:26.859Z,59.13
2018-08-14T04:25:58.972Z,60.01
2018-08-14T04:28:30.760Z,59.51
2018-08-14T04:31:02.860Z,58.16
2018-08-14T04:33:34.662Z,58.00
2018-08-14T04:36:06.742Z,57.53
2018-08-14T04:38:38.676Z,59.29
2018-08-14T04:41:10.446Z,58.86
2018-08-14T04:43:42.150Z,59.18
2018-08-14T04:46:13.978Z,59.43
2018-08-14T04:48:45.894Z,57.77
2018-08-14T04:51:17.683Z,58.92
2018-08-14T04:53:50.160Z,58.33
2018-08-14T04:56:21.723Z,58.59
2018-08-14T04:58:53.404Z,57.55
2018-08-14T05:01:25.296Z,57.40
2018-08-14T05:03:57.009Z,59.42
2018-08-14T05:06:28.793Z,57.46
2018-08-14T05:09:00.360Z,57.14
2018-08-14T05:11:32.381Z,57.57
2018-08-14T05:14:04.108Z,57.08
2018-08-14T05:16:35.894Z,57.66
2018-08-14T05:19:07.535Z,57.61
2018-08-14T05:21:39.379Z,59.68
2018-08-14T05:24:10.931Z,60.00
2018-08-14T05:26:42.688Z,61.11
2018-08-14T05:29:14.278Z,61.60
2018-08-14T05:31:46.341Z,61.13
2018-08-14T05:34:18.028Z,60.41
2018-08-14T05:36:49.758Z,60.11
2018-08-14T05:39:21.613Z,60.24
2018-08-14T05:41:53.452Z,60.92
2018-08-14T05:44:26.389Z,60.91
2018-08-14T05:46:58.381Z,60.91
2018-08-14T05:49:30.095Z,61.73
2018-08-14T05:52:03.125Z,61.34
2018-08-14T05:54:35.842Z,61.74
2018-08-14T05:57:07.660Z,59.09
2018-08-14T05:59:39.501Z,60.82
2018-08-14T06:02:11.547Z,61.23
2018-08-14T06:04:43.866Z,60.38
2018-08-14T06:07:15.997Z,61.62
2018-08-14T06:09:47.814Z,61.35
2018-08-14T06:12:19.880Z,57.41
2018-08-14T06:14:52.081Z,60.15
2018-08-14T06:17:24.362Z,62.11
2018-08-14T06:19:56.436Z,62.24
2018-08-14T06:22:28.428Z,61.86
2018-08-14T06:25:00.215Z,63.00
2018-08-14T06:27:32.280Z,62.10
2018-08-14T06:30:04.040Z,62.21
2018-08-14T06:32:36.085Z,63.51
2018-08-14T06:35:07.834Z,62.94
2018-08-14T06:37:40.617Z,64.34
2018-08-14T06:40:14.519Z,63.74
2018-08-14T06:42:48.268Z,64.16
2018-08-14T06:45:21.410Z,63.88
2018-08-14T06:47:53.223Z,63.79
2018-08-14T06:50:25.199Z,64.21
2018-08-14T06:52:57.194Z,63.21
2018-08-14T06:55:29.044Z,63.50
2018-08-14T06:58:00.962Z,63.13
2018-08-14T07:00:32.586Z,62.81
2018-08-14T07:03:04.540Z,62.46
2018-08-14T07:05:36.309Z,62.47
2018-08-14T07:08:08.406Z,61.56
2018-08-14T07:10:40.104Z,60.94
2018-08-14T07:13:11.826Z,61.86
2018-08-14T07:15:43.890Z,61.28
2018-08-14T07:18:15.621Z,61.72
2018-08-14T07:20:47.534Z,61.74
2018-08-14T07:23:19.140Z,61.86
2018-08-14T07:25:50.898Z,61.09
2018-08-14T07:28:23.044Z,61.14
2018-08-14T07:30:54.656Z,60.65
2018-08-14T07:33:26.465Z,60.46
2018-08-14T07:35:58.350Z,60.12
2018-08-14T07:38:30.436Z,61.26
2018-08-14T07:41:01.832Z,61.99
2018-08-14T07:43:33.955Z,60.98
2018-08-14T07:46:05.508Z,60.74
2018-08-14T07:48:37.281Z,61.39
2018-08-14T07:51:09.759Z,60.86
2018-08-14T07:53:41.957Z,61.80
2018-08-14T07:56:14.102Z,61.80
2018-08-14T07:58:46.129Z,61.69
2018-08-14T08:01:18.323Z,60.60
2018-08-14T08:03:51.070Z,61.85
2018-08-14T08:06:22.952Z,61.46
2018-08-14T08:08:54.891Z,62.62
2018-08-14T08:11:26.507Z,62.35
2018-08-14T08:13:58.134Z,62.20
2018-08-14T08:16:29.958Z,62.86
2018-08-14T08:19:01.960Z,62.90
2018-08-14T08:21:33.904Z,62.72
2018-08-14T08:24:05.846Z,62.75
2018-08-14T08:26:37.627Z,63.38
2018-08-14T08:29:09.237Z,62.44
2018-08-14T08:31:41.362Z,62.68
2018-08-14T08:34:13.208Z,62.55
2018-08-14T08:36:45.126Z,63.03
2018-08-14T08:39:16.871Z,62.13
2018-08-14T08:41:48.801Z,62.00
2018-08-14T08:44:20.918Z,61.86
2018-08-14T08:46:53.891Z,61.98
2018-08-14T08:49:27.307Z,61.71
2018-08-14T08:52:00.213Z,61.92
2018-08-14T08:54:33.936Z,62.43
2018-08-14T08:57:08.620Z,62.00
2018-08-14T08:59:44.716Z,61.84
2018-08-14T09:02:20.890Z,60.87
2018-08-14T09:04:58.913Z,60.70
2018-08-14T09:07:35.842Z,58.42
2018-08-14T09:10:14.977Z,60.48
2018-08-14T09:12:52.195Z,60.30
2018-08-14T09:15:30.499Z,59.76
2018-08-14T09:18:06.220Z,60.96
2018-08-14T09:20:43.071Z,61.15
2018-08-14T09:23:18.959Z,60.59
2018-08-14T09:25:56.351Z,60.14
2018-08-14T09:28:32.546Z,60.44
2018-08-14T09:31:10.603Z,60.29
2018-08-14T09:33:46.325Z,60.27
2018-08-14T09:36:22.099Z,60.08
2018-08-14T09:38:55.208Z,60.85
2018-08-14T09:41:28.382Z,59.34
2018-08-14T09:44:02.309Z,58.99
2018-08-14T09:46:36.783Z,59.45
2018-08-14T09:49:11.083Z,59.69
2018-08-14T09:51:44.431Z,59.24
2018-08-14T09:54:19.080Z,60.28
2018-08-14T09:56:53.775Z,60.99
2018-08-14T09:59:29.107Z,59.39
2018-08-14T10:02:07.114Z,59.44
2018-08-14T10:04:46.763Z,59.21
2018-08-14T10:07:26.807Z,59.73
2018-08-14T10:10:02.079Z,59.02
2018-08-14T10:12:38.549Z,58.98
2018-08-14T10:15:14.748Z,56.90
2018-08-14T10:17:50.851Z,54.45
2018-08-14T10:20:25.500Z,57.74
2018-08-14T10:23:01.077Z,58.08
2018-08-14T10:25:33.548Z,59.67
2018-08-14T10:28:06.130Z,60.28
2018-08-14T10:30:39.916Z,60.72
2018-08-14T10:33:12.678Z,61.19
2018-08-14T10:35:44.753Z,60.49
2018-08-14T10:38:16.733Z,59.44
2018-08-14T10:40:48.715Z,59.01
2018-08-14T10:43:20.906Z,60.55
2018-08-14T10:45:52.852Z,59.83
2018-08-14T10:48:25.890Z,59.06
2018-08-14T10:50:59.017Z,57.59
2018-08-14T10:53:33.111Z,60.44
2018-08-14T10:56:07.125Z,59.59
2018-08-14T10:58:41.707Z,59.36
2018-08-14T11:01:16.987Z,53.80
2018-08-14T11:03:53.089Z,54.89
2018-08-14T11:06:26.631Z,57.77
2018-08-14T11:08:59.127Z,57.37
2018-08-14T11:11:32.448Z,57.25
2018-08-14T11:14:04.468Z,58.88
2018-08-14T11:16:36.656Z,59.63
2018-08-14T11:19:08.770Z,61.42
2018-08-14T11:21:40.781Z,60.56
2018-08-14T11:24:13.362Z,61.45
2018-08-14T11:26:45.034Z,60.59
2018-08-14T11:29:16.844Z,61.40
2018-08-14T11:31:48.918Z,62.34
2018-08-14T11:34:21.135Z,62.29
2018-08-14T11:36:53.139Z,64.39
2018-08-14T11:39:24.698Z,64.30
2018-08-14T11:41:56.467Z,63.48
2018-08-14T11:44:28.571Z,62.39
2018-08-14T11:47:00.565Z,62.82
2018-08-14T11:49:32.561Z,62.97
2018-08-14T11:52:04.452Z,63.35
2018-08-14T11:54:36.222Z,60.67
2018-08-14T11:57:07.893Z,61.73
2018-08-14T11:59:39.473Z,62.75
2018-08-14T12:02:12.620Z,61.80
2018-08-14T12:04:44.182Z,61.48
2018-08-14T12:07:15.756Z,61.77
2018-08-14T12:09:47.467Z,60.88
2018-08-14T12:12:18.946Z,62.13
2018-08-14T12:14:50.815Z,62.01
2018-08-14T12:17:22.747Z,60.95
2018-08-14T12:19:54.659Z,60.73
2018-08-14T12:22:26.461Z,61.97
2018-08-14T12:24:58.542Z,62.23
2018-08-14T12:27:30.121Z,61.35
2018-08-14T12:30:02.235Z,61.23
2018-08-14T12:32:34.089Z,62.34
2018-08-14T12:35:07.146Z,62.01
2018-08-14T12:37:38.975Z,61.96
2018-08-14T12:40:11.953Z,62.33
2018-08-14T12:42:44.307Z,63.22
2018-08-14T12:45:19.672Z,63.00
2018-08-14T12:47:52.101Z,63.30
2018-08-14T12:50:24.386Z,63.65
2018-08-14T12:52:56.131Z,62.48
2018-08-14T12:55:28.034Z,62.34
2018-08-14T12:58:00.183Z,61.68
2018-08-14T13:00:32.212Z,63.44
2018-08-14T13:03:04.981Z,62.70
2018-08-14T13:05:36.796Z,63.66
2018-08-14T13:08:08.205Z,64.11
2018-08-14T13:10:40.157Z,63.37
2018-08-14T13:13:11.995Z,64.35
2018-08-14T13:15:43.871Z,64.02
2018-08-14T13:18:15.902Z,63.73
2018-08-14T13:20:47.759Z,64.25
2018-08-14T13:23:19.448Z,64.13
2018-08-14T13:25:51.454Z,64.33
2018-08-14T13:28:23.284Z,65.42
2018-08-14T13:30:55.397Z,64.76
2018-08-14T13:33:27.168Z,63.77
2018-08-14T13:35:59.058Z,61.67
2018-08-14T13:38:30.937Z,61.00
2018-08-14T13:41:02.973Z,62.68
2018-08-14T13:43:34.725Z,61.96
2018-08-14T13:46:06.323Z,62.77
2018-08-14T13:48:38.276Z,62.77
2018-08-14T13:51:10.493Z,62.84
2018-08-14T13:53:42.439Z,63.62
2018-08-14T13:56:14.606Z,63.50
2018-08-14T13:58:46.154Z,63.84
2018-08-14T14:01:18.298Z,62.79
2018-08-14T14:03:50.381Z,63.77
2018-08-14T14:06:22.288Z,62.46
2018-08-14T14:08:53.509Z,62.58
2018-08-14T14:11:24.845Z,62.70
2018-08-14T14:13:56.586Z,63.18
2018-08-14T14:16:28.745Z,63.03
2018-08-14T14:19:00.648Z,62.36
2018-08-14T14:21:32.475Z,62.96
2018-08-14T14:24:04.610Z,63.12
2018-08-14T14:26:36.771Z,63.33
2018-08-14T14:29:08.659Z,63.00
2018-08-14T14:31:40.460Z,63.27
2018-08-14T14:34:12.363Z,64.08
2018-08-14T14:36:44.154Z,64.63
2018-08-14T14:39:15.853Z,64.99
2018-08-14T14:41:48.076Z,64.72
2018-08-14T14:44:19.829Z,64.19
2018-08-14T14:46:51.975Z,64.40
2018-08-14T14:49:23.736Z,65.12
2018-08-14T14:51:56.813Z,64.18
2018-08-14T14:54:28.871Z,64.22
2018-08-14T14:57:00.964Z,65.23
2018-08-14T14:59:32.987Z,65.32
2018-08-14T15:02:04.978Z,65.10
2018-08-14T15:04:37.958Z,64.43
2018-08-14T15:07:09.820Z,64.69
2018-08-14T15:09:41.571Z,64.99
2018-08-14T15:12:13.532Z,65.26
2018-08-14T15:14:45.288Z,64.65
2018-08-14T15:17:18.432Z,65.24
2018-08-14T15:19:50.669Z,64.91
2018-08-14T15:22:22.554Z,65.82
2018-08-14T15:24:54.003Z,65.31
2018-08-14T15:27:25.775Z,64.99
2018-08-14T15:30:02.572Z,64.61
2018-08-14T15:32:34.458Z,65.01
2018-08-14T15:35:06.490Z,64.09
2018-08-14T15:37:37.898Z,63.79
2018-08-14T15:40:09.628Z,64.30
2018-08-14T15:42:41.538Z,63.16
2018-08-14T15:45:13.216Z,63.80
2018-08-14T15:47:44.983Z,63.46
2018-08-14T15:50:16.912Z,63.58
2018-08-14T15:52:48.607Z,63.33
2018-08-14T15:55:20.632Z,63.04
2018-08-14T15:57:52.497Z,64.19
2018-08-14T16:00:24.161Z,63.23
2018-08-14T16:02:56.168Z,63.92
2018-08-14T16:05:28.714Z,63.24
2018-08-14T16:08:00.625Z,63.23
2018-08-14T16:10:32.436Z,63.16
2018-08-14T16:13:04.079Z,63.20
2018-08-14T16:15:35.741Z,63.39
2018-08-14T16:18:07.571Z,64.19
2018-08-14T16:20:39.484Z,63.98
2018-08-14T16:23:10.944Z,63.23
2018-08-14T16:25:42.717Z,64.29
2018-08-14T16:28:14.684Z,64.12
2018-08-14T16:30:46.753Z,64.21
2018-08-14T16:33:19.793Z,64.05
2018-08-14T16:35:51.671Z,63.66
2018-08-14T16:38:23.290Z,63.77
2018-08-14T16:40:54.947Z,63.11
2018-08-14T16:43:26.580Z,63.21
2018-08-14T16:45:58.340Z,63.14
2018-08-14T16:48:30.219Z,63.57
2018-08-14T16:51:02.090Z,63.00
2018-08-14T16:53:33.753Z,63.40
2018-08-14T16:56:05.619Z,63.68
2018-08-14T16:58:37.638Z,63.57
2018-08-14T17:01:09.475Z,62.82
2018-08-14T17:03:41.502Z,62.42
2018-08-14T17:06:14.065Z,58.89
2018-08-14T17:08:45.845Z,58.63
2018-08-14T17:11:17.345Z,57.88
2018-08-14T17:13:49.163Z,58.10
2018-08-14T17:16:20.884Z,57.73
2018-08-14T17:18:52.749Z,57.20
2018-08-14T17:21:21.900Z,56.37
2018-08-14T17:30:51.003Z,55.48
2018-08-14T17:33:22.768Z,55.29
2018-08-14T17:35:54.839Z,55.95
2018-08-14T17:38:26.586Z,55.74
2018-08-14T17:40:58.397Z,56.38
2018-08-14T17:43:30.019Z,54.19
2018-08-14T17:46:01.890Z,53.16
2018-08-14T17:48:33.756Z,54.00
2018-08-14T17:51:05.713Z,55.62
2018-08-14T17:53:37.741Z,54.24
2018-08-14T17:56:09.572Z,51.70
2018-08-14T17:58:41.289Z,51.22
2018-08-14T18:02:38.122Z,51.75
2018-08-14T18:05:10.434Z,52.71
2018-08-14T18:07:43.977Z,52.43
2018-08-14T18:10:18.248Z,47.48
2018-08-14T18:12:50.068Z,51.61
2018-08-14T18:15:22.535Z,50.71
2018-08-14T18:17:54.760Z,52.04
2018-08-14T18:20:26.878Z,51.62
2018-08-14T18:22:58.656Z,51.80
2018-08-14T18:25:30.291Z,52.31
2018-08-14T18:28:02.333Z,52.71
2018-08-14T18:30:34.052Z,54.65
2018-08-14T18:33:05.886Z,55.35
2018-08-14T18:35:37.603Z,53.22
2018-08-14T18:38:09.677Z,53.92
2018-08-14T18:40:41.496Z,49.89
2018-08-14T18:43:13.566Z,49.65
2018-08-14T18:45:45.183Z,49.43
2018-08-14T18:48:17.052Z,51.91
2018-08-14T18:50:48.569Z,51.58
2018-08-14T18:53:20.408Z,52.34
2018-08-14T18:55:52.067Z,53.57
2018-08-14T18:58:23.860Z,54.23
2018-08-14T19:00:56.509Z,54.71
2018-08-14T19:03:29.001Z,54.94
2018-08-14T19:06:03.366Z,54.39
2018-08-14T19:08:36.304Z,55.36
2018-08-14T19:11:08.180Z,55.50
2018-08-14T19:13:40.878Z,55.94
2018-08-14T19:16:14.057Z,55.92
2018-08-14T19:18:46.455Z,55.33
2018-08-14T19:21:19.427Z,54.40
2018-08-14T19:23:51.987Z,54.66
2018-08-14T19:26:26.492Z,54.57
2018-08-14T19:28:58.817Z,54.81
2018-08-14T19:31:33.276Z,56.09
2018-08-14T19:34:05.206Z,54.49
2018-08-14T19:36:37.196Z,55.06
2018-08-14T19:39:13.088Z,54.50
2018-08-14T19:41:45.179Z,54.74
2018-08-14T19:44:16.729Z,56.33
2018-08-14T19:46:48.554Z,55.92
2018-08-14T19:49:20.302Z,54.75
2018-08-14T19:51:52.738Z,54.99
2018-08-14T19:54:24.494Z,55.88
2018-08-14T19:56:56.364Z,56.08
2018-08-14T19:59:28.000Z,55.71
2018-08-14T20:01:59.671Z,56.55
2018-08-14T20:04:31.340Z,57.20
2018-08-14T20:07:03.203Z,55.21
2018-08-14T20:09:35.641Z,56.07
2018-08-14T20:12:07.326Z,56.60
2018-08-14T20:14:39.021Z,56.72
2018-08-14T20:17:10.906Z,54.97
2018-08-14T20:19:42.744Z,56.51
2018-08-14T20:22:18.710Z,56.38
2018-08-14T20:24:50.558Z,55.42
2018-08-14T20:27:22.465Z,56.28
2018-08-14T20:29:54.038Z,54.76
2018-08-14T20:32:25.904Z,56.79
2018-08-14T20:34:57.921Z,56.20
2018-08-14T20:37:29.657Z,57.31
2018-08-14T20:40:01.518Z,56.40
2018-08-14T20:42:33.351Z,56.95
2018-08-14T20:45:05.467Z,55.68
2018-08-14T20:47:37.229Z,55.77
2018-08-14T20:50:10.596Z,57.33
2018-08-14T20:52:42.519Z,56.41
2018-08-14T20:56:17.888Z,56.76
2018-08-14T20:58:49.563Z,57.11
2018-08-14T21:01:21.518Z,56.87
2018-08-14T21:03:53.428Z,55.58
2018-08-14T21:06:25.725Z,57.03
2018-08-14T21:08:57.484Z,57.71
2018-08-14T21:11:30.405Z,56.81
2018-08-14T21:14:02.137Z,57.67
2018-08-14T21:16:34.043Z,57.36
2018-08-14T21:19:05.712Z,57.14
2018-08-14T21:21:37.572Z,58.34
2018-08-14T21:24:09.288Z,56.41
2018-08-14T21:26:41.108Z,56.76
2018-08-14T21:29:12.971Z,55.08
2018-08-14T21:31:44.922Z,55.78
2018-08-14T21:34:16.494Z,57.19
2018-08-14T21:36:48.438Z,58.25
2018-08-14T21:39:20.178Z,57.38
2018-08-14T21:41:52.069Z,55.95
2018-08-14T21:44:23.949Z,56.67
2018-08-14T21:46:55.595Z,57.15
2018-08-14T21:49:27.149Z,57.73
2018-08-14T21:51:59.462Z,57.72
2018-08-14T21:54:31.342Z,57.15
2018-08-14T21:57:03.153Z,57.45
2018-08-14T21:59:34.812Z,57.50
2018-08-14T22:02:07.016Z,56.75
2018-08-14T22:04:38.795Z,56.78
2018-08-14T22:07:10.742Z,56.98
2018-08-14T22:09:42.335Z,56.95
2018-08-14T22:12:14.721Z,57.64
2018-08-14T22:14:46.654Z,56.83
2018-08-14T22:17:18.549Z,56.93
2018-08-14T22:19:50.378Z,55.54
2018-08-14T22:22:22.498Z,55.71
2018-08-14T22:24:54.376Z,55.24
2018-08-14T22:34:26.863Z,55.77
2018-08-14T22:36:58.769Z,54.96
2018-08-14T22:39:30.798Z,54.92
2018-08-14T22:42:02.585Z,55.91
2018-08-14T22:44:34.980Z,56.43
2018-08-14T22:47:06.844Z,57.84
2018-08-14T22:49:38.716Z,56.62
2018-08-14T22:52:10.347Z,55.85
2018-08-14T22:54:42.413Z,55.18
2018-08-14T22:57:14.157Z,55.58
2018-08-14T22:59:46.265Z,57.06
2018-08-14T23:02:18.141Z,55.26
2018-08-14T23:04:50.143Z,57.18
2018-08-14T23:07:21.822Z,57.13
2018-08-14T23:09:53.713Z,56.81
2018-08-14T23:12:26.602Z,56.13
2018-08-14T23:14:58.350Z,55.37
2018-08-14T23:17:30.220Z,55.22
2018-08-14T23:20:02.052Z,53.91
2018-08-14T23:22:34.086Z,55.14
2018-08-14T23:25:06.432Z,54.32
2018-08-14T23:27:38.290Z,54.64
2018-08-14T23:30:13.608Z,56.10
2018-08-14T23:32:46.002Z,54.74
2018-08-14T23:35:17.764Z,55.23
2018-08-14T23:37:49.413Z,56.25
2018-08-14T23:40:21.260Z,54.93
2018-08-14T23:42:52.936Z,55.85
2018-08-14T23:45:24.634Z,54.37
2018-08-14T23:47:56.552Z,54.63
2018-08-14T23:50:28.786Z,54.96
2018-08-14T23:53:00.588Z,54.61
2018-08-14T23:55:32.389Z,54.34
2018-08-14T23:58:04.076Z,54.97
